sensor_id;sensor_type;location;lat;lon;timestamp;temperature;humidity
16305;DHT22;8261;47.678;-122.174;2023-07-13T00:01:51;25.60;99.90
16305;DHT22;8261;47.678;-122.174;2023-07-13T00:04:24;25.70;99.90
16305;DHT22;8261;47.678;-122.174;2023-07-13T00:06:58;25.90;99.90
16305;DHT22;8261;47.678;-122.174;2023-07-13T00:09:28;25.80;99.90
16305;DHT22;8261;47.678;-122.174;2023-07-13T00:11:59;25.60;99.90
16305;DHT22;8261;47.678;-122.174;2023-07-13T00:14:33;25.70;99.90
16305;DHT22;8261;47.678;-122.174;2023-07-13T00:17:05;25.80;99.90
16305;DHT22;8261;47.678;-122.174;2023-07-13T00:19:38;25.80;99.90
16305;DHT22;8261;47.678;-122.174;2023-07-13T00:22:08;26.20;99.90
16305;DHT22;8261;47.678;-122.174;2023-07-13T00:24:39;26.20;99.90
16305;DHT22;8261;47.678;-122.174;2023-07-13T00:27:11;26.00;99.90
16305;DHT22;8261;47.678;-122.174;2023-07-13T00:29:44;25.80;99.90
16305;DHT22;8261;47.678;-122.174;2023-07-13T00:32:15;25.50;99.90
16305;DHT22;8261;47.678;-122.174;2023-07-13T00:34:46;25.30;99.90
16305;DHT22;8261;47.678;-122.174;2023-07-13T00:37:17;25.20;99.90
16305;DHT22;8261;47.678;-122.174;2023-07-13T00:39:48;25.10;99.90
16305;DHT22;8261;47.678;-122.174;2023-07-13T00:42:19;25.30;99.90
16305;DHT22;8261;47.678;-122.174;2023-07-13T00:47:54;25.60;99.90
16305;DHT22;8261;47.678;-122.174;2023-07-13T00:50:26;25.70;99.90
16305;DHT22;8261;47.678;-122.174;2023-07-13T00:52:57;25.80;99.90
16305;DHT22;8261;47.678;-122.174;2023-07-13T00:55:28;26.00;99.90
16305;DHT22;8261;47.678;-122.174;2023-07-13T00:57:59;25.90;99.90
16305;DHT22;8261;47.678;-122.174;2023-07-13T01:00:34;25.80;99.90
16305;DHT22;8261;47.678;-122.174;2023-07-13T01:03:05;25.90;99.90
16305;DHT22;8261;47.678;-122.174;2023-07-13T01:05:36;25.90;99.90
16305;DHT22;8261;47.678;-122.174;2023-07-13T01:08:07;25.80;99.90
16305;DHT22;8261;47.678;-122.174;2023-07-13T01:10:38;25.30;99.90
16305;DHT22;8261;47.678;-122.174;2023-07-13T01:13:10;25.20;99.90
16305;DHT22;8261;47.678;-122.174;2023-07-13T01:15:44;24.70;99.90
16305;DHT22;8261;47.678;-122.174;2023-07-13T01:18:17;24.20;99.90
16305;DHT22;8261;47.678;-122.174;2023-07-13T01:20:54;24.00;99.90
16305;DHT22;8261;47.678;-122.174;2023-07-13T01:23:26;24.00;99.90
16305;DHT22;8261;47.678;-122.174;2023-07-13T01:25:59;24.20;99.90
16305;DHT22;8261;47.678;-122.174;2023-07-13T01:28:31;24.00;99.90
16305;DHT22;8261;47.678;-122.174;2023-07-13T01:31:05;24.00;99.90
16305;DHT22;8261;47.678;-122.174;2023-07-13T01:33:38;24.10;99.90
16305;DHT22;8261;47.678;-122.174;2023-07-13T01:36:11;24.20;99.90
16305;DHT22;8261;47.678;-122.174;2023-07-13T01:38:42;24.20;99.90
16305;DHT22;8261;47.678;-122.174;2023-07-13T01:41:14;24.20;99.90
16305;DHT22;8261;47.678;-122.174;2023-07-13T01:43:45;24.00;99.90
16305;DHT22;8261;47.678;-122.174;2023-07-13T01:46:32;23.70;99.90
16305;DHT22;8261;47.678;-122.174;2023-07-13T01:49:03;23.70;99.90
16305;DHT22;8261;47.678;-122.174;2023-07-13T01:51:36;23.70;99.90
16305;DHT22;8261;47.678;-122.174;2023-07-13T01:54:07;24.20;99.90
16305;DHT22;8261;47.678;-122.174;2023-07-13T01:56:38;25.20;99.90
16305;DHT22;8261;47.678;-122.174;2023-07-13T01:59:10;26.20;99.90
16305;DHT22;8261;47.678;-122.174;2023-07-13T02:01:42;26.80;99.90
16305;DHT22;8261;47.678;-122.174;2023-07-13T02:04:15;27.10;99.90
16305;DHT22;8261;47.678;-122.174;2023-07-13T02:06:48;27.50;99.90
16305;DHT22;8261;47.678;-122.174;2023-07-13T02:09:19;27.60;99.90
16305;DHT22;8261;47.678;-122.174;2023-07-13T02:11:51;27.50;99.90
16305;DHT22;8261;47.678;-122.174;2023-07-13T02:14:26;26.40;99.90
16305;DHT22;8261;47.678;-122.174;2023-07-13T02:16:57;25.80;99.90
16305;DHT22;8261;47.678;-122.174;2023-07-13T02:19:28;25.30;99.90
16305;DHT22;8261;47.678;-122.174;2023-07-13T02:22:01;24.80;99.90
16305;DHT22;8261;47.678;-122.174;2023-07-13T02:24:32;24.40;99.90
16305;DHT22;8261;47.678;-122.174;2023-07-13T02:27:03;24.00;99.90
16305;DHT22;8261;47.678;-122.174;2023-07-13T02:29:35;23.60;99.90
16305;DHT22;8261;47.678;-122.174;2023-07-13T02:32:07;23.50;99.90
16305;DHT22;8261;47.678;-122.174;2023-07-13T02:34:41;23.40;99.90
16305;DHT22;8261;47.678;-122.174;2023-07-13T02:37:14;23.50;99.90
16305;DHT22;8261;47.678;-122.174;2023-07-13T02:39:45;23.00;99.90
16305;DHT22;8261;47.678;-122.174;2023-07-13T02:42:16;23.00;99.90
16305;DHT22;8261;47.678;-122.174;2023-07-13T02:44:47;23.00;99.90
16305;DHT22;8261;47.678;-122.174;2023-07-13T02:47:19;23.00;99.90
16305;DHT22;8261;47.678;-122.174;2023-07-13T02:49:50;23.00;99.90
16305;DHT22;8261;47.678;-122.174;2023-07-13T02:52:23;22.80;99.90
16305;DHT22;8261;47.678;-122.174;2023-07-13T02:54:54;22.80;99.90
16305;DHT22;8261;47.678;-122.174;2023-07-13T02:57:25;22.70;99.90
16305;DHT22;8261;47.678;-122.174;2023-07-13T02:59:56;22.50;99.90
16305;DHT22;8261;47.678;-122.174;2023-07-13T03:02:28;22.50;99.90
16305;DHT22;8261;47.678;-122.174;2023-07-13T03:04:59;22.50;99.90
16305;DHT22;8261;47.678;-122.174;2023-07-13T03:07:32;22.40;99.90
16305;DHT22;8261;47.678;-122.174;2023-07-13T03:10:03;22.40;99.90
16305;DHT22;8261;47.678;-122.174;2023-07-13T03:12:35;22.40;99.90
16305;DHT22;8261;47.678;-122.174;2023-07-13T03:15:06;22.30;99.90
16305;DHT22;8261;47.678;-122.174;2023-07-13T03:17:37;22.20;99.90
16305;DHT22;8261;47.678;-122.174;2023-07-13T03:20:09;22.20;99.90
16305;DHT22;8261;47.678;-122.174;2023-07-13T03:22:42;22.00;99.90
16305;DHT22;8261;47.678;-122.174;2023-07-13T03:25:14;21.90;99.90
16305;DHT22;8261;47.678;-122.174;2023-07-13T03:27:44;21.80;99.90
16305;DHT22;8261;47.678;-122.174;2023-07-13T03:30:16;21.60;99.90
16305;DHT22;8261;47.678;-122.174;2023-07-13T03:32:47;21.60;99.90
16305;DHT22;8261;47.678;-122.174;2023-07-13T03:35:18;21.40;99.90
16305;DHT22;8261;47.678;-122.174;2023-07-13T03:37:51;21.30;99.90
16305;DHT22;8261;47.678;-122.174;2023-07-13T03:40:22;21.30;99.90
16305;DHT22;8261;47.678;-122.174;2023-07-13T03:42:55;20.90;99.90
16305;DHT22;8261;47.678;-122.174;2023-07-13T03:45:27;20.70;99.90
16305;DHT22;8261;47.678;-122.174;2023-07-13T03:47:58;20.60;99.90
16305;DHT22;8261;47.678;-122.174;2023-07-13T03:50:30;20.50;99.90
16305;DHT22;8261;47.678;-122.174;2023-07-13T03:53:03;20.40;99.90
16305;DHT22;8261;47.678;-122.174;2023-07-13T03:55:34;20.30;99.90
16305;DHT22;8261;47.678;-122.174;2023-07-13T03:58:29;20.30;99.90
16305;DHT22;8261;47.678;-122.174;2023-07-13T04:01:03;20.20;99.90
16305;DHT22;8261;47.678;-122.174;2023-07-13T04:03:35;20.20;99.90
16305;DHT22;8261;47.678;-122.174;2023-07-13T04:06:15;20.10;99.90
16305;DHT22;8261;47.678;-122.174;2023-07-13T04:08:53;20.10;99.90
16305;DHT22;8261;47.678;-122.174;2023-07-13T04:11:26;20.00;99.90
16305;DHT22;8261;47.678;-122.174;2023-07-13T04:13:57;19.80;99.90
16305;DHT22;8261;47.678;-122.174;2023-07-13T04:16:28;19.80;99.90
16305;DHT22;8261;47.678;-122.174;2023-07-13T04:18:59;19.70;99.90
16305;DHT22;8261;47.678;-122.174;2023-07-13T04:21:31;19.80;99.90
16305;DHT22;8261;47.678;-122.174;2023-07-13T04:24:04;19.80;99.90
16305;DHT22;8261;47.678;-122.174;2023-07-13T04:26:35;19.70;99.90
16305;DHT22;8261;47.678;-122.174;2023-07-13T04:29:07;19.60;99.90
16305;DHT22;8261;47.678;-122.174;2023-07-13T04:31:38;19.70;99.90
16305;DHT22;8261;47.678;-122.174;2023-07-13T04:34:09;19.60;99.90
16305;DHT22;8261;47.678;-122.174;2023-07-13T04:36:40;19.60;99.90
16305;DHT22;8261;47.678;-122.174;2023-07-13T04:39:13;19.60;99.90
16305;DHT22;8261;47.678;-122.174;2023-07-13T04:41:43;19.60;99.90
16305;DHT22;8261;47.678;-122.174;2023-07-13T04:44:14;19.60;99.90
16305;DHT22;8261;47.678;-122.174;2023-07-13T04:46:45;19.50;99.90
16305;DHT22;8261;47.678;-122.174;2023-07-13T04:49:16;19.40;99.90
16305;DHT22;8261;47.678;-122.174;2023-07-13T04:51:47;19.40;99.90
16305;DHT22;8261;47.678;-122.174;2023-07-13T04:54:20;19.30;99.90
16305;DHT22;8261;47.678;-122.174;2023-07-13T04:56:53;19.30;99.90
16305;DHT22;8261;47.678;-122.174;2023-07-13T04:59:24;19.20;99.90
16305;DHT22;8261;47.678;-122.174;2023-07-13T05:01:54;19.20;99.90
16305;DHT22;8261;47.678;-122.174;2023-07-13T05:04:26;19.10;99.90
16305;DHT22;8261;47.678;-122.174;2023-07-13T05:06:57;19.00;99.90
16305;DHT22;8261;47.678;-122.174;2023-07-13T05:09:29;19.00;99.90
16305;DHT22;8261;47.678;-122.174;2023-07-13T05:12:00;18.90;99.90
16305;DHT22;8261;47.678;-122.174;2023-07-13T05:14:31;18.90;99.90
16305;DHT22;8261;47.678;-122.174;2023-07-13T05:17:02;18.90;99.90
16305;DHT22;8261;47.678;-122.174;2023-07-13T05:19:33;18.70;99.90
16305;DHT22;8261;47.678;-122.174;2023-07-13T05:22:04;18.70;99.90
16305;DHT22;8261;47.678;-122.174;2023-07-13T05:24:37;18.60;99.90
16305;DHT22;8261;47.678;-122.174;2023-07-13T05:27:08;18.50;99.90
16305;DHT22;8261;47.678;-122.174;2023-07-13T05:29:39;18.40;99.90
16305;DHT22;8261;47.678;-122.174;2023-07-13T05:32:10;18.30;99.90
16305;DHT22;8261;47.678;-122.174;2023-07-13T05:34:40;18.30;99.90
16305;DHT22;8261;47.678;-122.174;2023-07-13T05:37:11;18.20;99.90
16305;DHT22;8261;47.678;-122.174;2023-07-13T05:39:44;18.10;99.90
16305;DHT22;8261;47.678;-122.174;2023-07-13T05:42:15;18.10;99.90
16305;DHT22;8261;47.678;-122.174;2023-07-13T05:44:46;18.00;99.90
16305;DHT22;8261;47.678;-122.174;2023-07-13T05:47:16;18.00;99.90
16305;DHT22;8261;47.678;-122.174;2023-07-13T05:49:48;17.90;99.90
16305;DHT22;8261;47.678;-122.174;2023-07-13T05:52:18;17.80;99.90
16305;DHT22;8261;47.678;-122.174;2023-07-13T05:54:51;17.70;99.90
16305;DHT22;8261;47.678;-122.174;2023-07-13T05:57:22;17.70;99.90
16305;DHT22;8261;47.678;-122.174;2023-07-13T05:59:53;17.60;99.90
16305;DHT22;8261;47.678;-122.174;2023-07-13T06:02:24;17.60;99.90
16305;DHT22;8261;47.678;-122.174;2023-07-13T06:04:55;17.50;99.90
16305;DHT22;8261;47.678;-122.174;2023-07-13T06:07:26;17.40;99.90
16305;DHT22;8261;47.678;-122.174;2023-07-13T06:09:58;17.30;99.90
16305;DHT22;8261;47.678;-122.174;2023-07-13T06:12:29;17.20;99.90
16305;DHT22;8261;47.678;-122.174;2023-07-13T06:15:00;17.10;99.90
16305;DHT22;8261;47.678;-122.174;2023-07-13T06:17:32;17.20;99.90
16305;DHT22;8261;47.678;-122.174;2023-07-13T06:20:03;17.20;99.90
16305;DHT22;8261;47.678;-122.174;2023-07-13T06:22:34;17.10;99.90
16305;DHT22;8261;47.678;-122.174;2023-07-13T06:25:08;17.10;99.90
16305;DHT22;8261;47.678;-122.174;2023-07-13T06:27:39;17.00;99.90
16305;DHT22;8261;47.678;-122.174;2023-07-13T06:30:11;17.00;99.90
16305;DHT22;8261;47.678;-122.174;2023-07-13T06:32:42;16.90;99.90
16305;DHT22;8261;47.678;-122.174;2023-07-13T06:35:13;16.90;99.90
16305;DHT22;8261;47.678;-122.174;2023-07-13T06:37:44;16.90;99.90
16305;DHT22;8261;47.678;-122.174;2023-07-13T06:40:17;16.80;99.90
16305;DHT22;8261;47.678;-122.174;2023-07-13T06:42:48;16.80;99.90
16305;DHT22;8261;47.678;-122.174;2023-07-13T06:45:19;16.80;99.90
16305;DHT22;8261;47.678;-122.174;2023-07-13T06:47:50;16.70;99.90
16305;DHT22;8261;47.678;-122.174;2023-07-13T06:50:21;16.70;99.90
16305;DHT22;8261;47.678;-122.174;2023-07-13T06:52:52;16.60;99.90
16305;DHT22;8261;47.678;-122.174;2023-07-13T06:55:24;16.60;99.90
16305;DHT22;8261;47.678;-122.174;2023-07-13T06:57:55;16.60;99.90
16305;DHT22;8261;47.678;-122.174;2023-07-13T07:00:26;16.50;99.90
16305;DHT22;8261;47.678;-122.174;2023-07-13T07:02:57;16.50;99.90
16305;DHT22;8261;47.678;-122.174;2023-07-13T07:05:29;16.50;99.90
16305;DHT22;8261;47.678;-122.174;2023-07-13T07:07:59;16.40;99.90
16305;DHT22;8261;47.678;-122.174;2023-07-13T07:10:32;16.40;99.90
16305;DHT22;8261;47.678;-122.174;2023-07-13T07:13:04;16.40;99.90
16305;DHT22;8261;47.678;-122.174;2023-07-13T07:15:35;16.30;99.90
16305;DHT22;8261;47.678;-122.174;2023-07-13T07:18:06;16.30;99.90
16305;DHT22;8261;47.678;-122.174;2023-07-13T07:20:37;16.30;99.90
16305;DHT22;8261;47.678;-122.174;2023-07-13T07:23:08;16.20;99.90
16305;DHT22;8261;47.678;-122.174;2023-07-13T07:25:41;16.20;99.90
16305;DHT22;8261;47.678;-122.174;2023-07-13T07:28:16;16.10;99.90
16305;DHT22;8261;47.678;-122.174;2023-07-13T07:30:53;16.10;99.90
16305;DHT22;8261;47.678;-122.174;2023-07-13T07:33:27;16.10;99.90
16305;DHT22;8261;47.678;-122.174;2023-07-13T07:35:58;16.00;99.90
16305;DHT22;8261;47.678;-122.174;2023-07-13T07:38:32;16.00;99.90
16305;DHT22;8261;47.678;-122.174;2023-07-13T07:41:06;15.90;99.90
16305;DHT22;8261;47.678;-122.174;2023-07-13T07:43:39;15.90;99.90
16305;DHT22;8261;47.678;-122.174;2023-07-13T07:46:10;15.90;99.90
16305;DHT22;8261;47.678;-122.174;2023-07-13T07:48:42;15.80;99.90
16305;DHT22;8261;47.678;-122.174;2023-07-13T07:51:12;15.80;99.90
16305;DHT22;8261;47.678;-122.174;2023-07-13T07:53:44;15.70;99.90
16305;DHT22;8261;47.678;-122.174;2023-07-13T07:56:16;15.60;99.90
16305;DHT22;8261;47.678;-122.174;2023-07-13T07:58:50;15.50;99.90
16305;DHT22;8261;47.678;-122.174;2023-07-13T08:01:24;15.50;99.90
16305;DHT22;8261;47.678;-122.174;2023-07-13T08:03:57;15.40;99.90
16305;DHT22;8261;47.678;-122.174;2023-07-13T08:06:32;15.40;99.90
16305;DHT22;8261;47.678;-122.174;2023-07-13T08:09:06;15.30;99.90
16305;DHT22;8261;47.678;-122.174;2023-07-13T08:11:39;15.30;99.90
16305;DHT22;8261;47.678;-122.174;2023-07-13T08:14:13;15.30;99.90
16305;DHT22;8261;47.678;-122.174;2023-07-13T08:16:45;15.20;99.90
16305;DHT22;8261;47.678;-122.174;2023-07-13T08:19:16;15.20;99.90
16305;DHT22;8261;47.678;-122.174;2023-07-13T08:21:47;15.20;99.90
16305;DHT22;8261;47.678;-122.174;2023-07-13T08:24:18;15.10;99.90
16305;DHT22;8261;47.678;-122.174;2023-07-13T08:26:54;15.20;99.90
16305;DHT22;8261;47.678;-122.174;2023-07-13T08:29:25;15.10;99.90
16305;DHT22;8261;47.678;-122.174;2023-07-13T08:31:58;15.10;99.90
16305;DHT22;8261;47.678;-122.174;2023-07-13T08:34:29;15.00;99.90
16305;DHT22;8261;47.678;-122.174;2023-07-13T08:36:59;14.90;99.90
16305;DHT22;8261;47.678;-122.174;2023-07-13T08:39:32;14.90;99.90
16305;DHT22;8261;47.678;-122.174;2023-07-13T08:42:07;14.90;99.90
16305;DHT22;8261;47.678;-122.174;2023-07-13T08:44:49;14.90;99.90
16305;DHT22;8261;47.678;-122.174;2023-07-13T08:47:25;14.90;99.90
16305;DHT22;8261;47.678;-122.174;2023-07-13T08:49:57;14.90;99.90
16305;DHT22;8261;47.678;-122.174;2023-07-13T08:52:32;14.90;99.90
16305;DHT22;8261;47.678;-122.174;2023-07-13T08:55:11;14.80;99.90
16305;DHT22;8261;47.678;-122.174;2023-07-13T08:57:48;14.80;99.90
16305;DHT22;8261;47.678;-122.174;2023-07-13T09:00:21;14.70;99.90
16305;DHT22;8261;47.678;-122.174;2023-07-13T09:02:55;14.70;99.90
16305;DHT22;8261;47.678;-122.174;2023-07-13T09:05:30;14.70;99.90
16305;DHT22;8261;47.678;-122.174;2023-07-13T09:08:15;14.70;99.90
16305;DHT22;8261;47.678;-122.174;2023-07-13T09:10:52;14.60;99.90
16305;DHT22;8261;47.678;-122.174;2023-07-13T09:13:40;14.60;99.90
16305;DHT22;8261;47.678;-122.174;2023-07-13T09:16:13;14.60;99.90
16305;DHT22;8261;47.678;-122.174;2023-07-13T09:18:47;14.60;99.90
16305;DHT22;8261;47.678;-122.174;2023-07-13T09:21:22;14.70;99.90
16305;DHT22;8261;47.678;-122.174;2023-07-13T09:23:55;14.60;99.90
16305;DHT22;8261;47.678;-122.174;2023-07-13T09:26:29;14.70;99.90
16305;DHT22;8261;47.678;-122.174;2023-07-13T09:29:09;14.70;99.90
16305;DHT22;8261;47.678;-122.174;2023-07-13T09:31:46;14.70;99.90
16305;DHT22;8261;47.678;-122.174;2023-07-13T09:34:20;14.60;99.90
16305;DHT22;8261;47.678;-122.174;2023-07-13T09:36:51;14.70;99.90
16305;DHT22;8261;47.678;-122.174;2023-07-13T09:39:24;14.60;99.90
16305;DHT22;8261;47.678;-122.174;2023-07-13T09:42:02;14.60;99.90
16305;DHT22;8261;47.678;-122.174;2023-07-13T09:44:38;14.50;99.90
16305;DHT22;8261;47.678;-122.174;2023-07-13T09:47:17;14.50;99.90
16305;DHT22;8261;47.678;-122.174;2023-07-13T09:49:48;14.40;99.90
16305;DHT22;8261;47.678;-122.174;2023-07-13T09:52:38;14.30;99.90
16305;DHT22;8261;47.678;-122.174;2023-07-13T09:55:25;14.30;99.90
16305;DHT22;8261;47.678;-122.174;2023-07-13T09:57:56;14.30;99.90
16305;DHT22;8261;47.678;-122.174;2023-07-13T10:00:30;14.30;99.90
16305;DHT22;8261;47.678;-122.174;2023-07-13T10:03:04;14.20;99.90
16305;DHT22;8261;47.678;-122.174;2023-07-13T10:05:39;14.20;99.90
16305;DHT22;8261;47.678;-122.174;2023-07-13T10:08:22;14.20;99.90
16305;DHT22;8261;47.678;-122.174;2023-07-13T10:11:00;14.10;99.90
16305;DHT22;8261;47.678;-122.174;2023-07-13T10:13:35;14.10;99.90
16305;DHT22;8261;47.678;-122.174;2023-07-13T10:16:09;14.10;99.90
16305;DHT22;8261;47.678;-122.174;2023-07-13T10:18:44;14.10;99.90
16305;DHT22;8261;47.678;-122.174;2023-07-13T10:21:18;14.10;99.90
16305;DHT22;8261;47.678;-122.174;2023-07-13T10:23:55;14.10;99.90
16305;DHT22;8261;47.678;-122.174;2023-07-13T10:26:31;14.00;99.90
16305;DHT22;8261;47.678;-122.174;2023-07-13T10:29:06;14.00;99.90
16305;DHT22;8261;47.678;-122.174;2023-07-13T10:31:44;14.00;99.90
16305;DHT22;8261;47.678;-122.174;2023-07-13T10:34:15;13.90;99.90
16305;DHT22;8261;47.678;-122.174;2023-07-13T10:36:47;13.80;99.90
16305;DHT22;8261;47.678;-122.174;2023-07-13T10:39:20;13.80;99.90
16305;DHT22;8261;47.678;-122.174;2023-07-13T10:41:54;13.80;99.90
16305;DHT22;8261;47.678;-122.174;2023-07-13T10:44:28;13.80;99.90
16305;DHT22;8261;47.678;-122.174;2023-07-13T10:47:01;13.70;99.90
16305;DHT22;8261;47.678;-122.174;2023-07-13T10:49:36;13.60;99.90
16305;DHT22;8261;47.678;-122.174;2023-07-13T10:52:45;13.50;99.90
16305;DHT22;8261;47.678;-122.174;2023-07-13T10:55:36;13.50;99.90
16305;DHT22;8261;47.678;-122.174;2023-07-13T10:58:18;13.50;99.90
16305;DHT22;8261;47.678;-122.174;2023-07-13T11:00:53;13.50;99.90
16305;DHT22;8261;47.678;-122.174;2023-07-13T11:03:29;13.50;99.90
16305;DHT22;8261;47.678;-122.174;2023-07-13T11:06:13;13.50;99.90
16305;DHT22;8261;47.678;-122.174;2023-07-13T11:08:55;13.40;99.90
16305;DHT22;8261;47.678;-122.174;2023-07-13T11:11:36;13.30;99.90
16305;DHT22;8261;47.678;-122.174;2023-07-13T11:14:29;13.30;99.90
16305;DHT22;8261;47.678;-122.174;2023-07-13T11:17:37;13.40;99.90
16305;DHT22;8261;47.678;-122.174;2023-07-13T11:20:32;13.40;99.90
16305;DHT22;8261;47.678;-122.174;2023-07-13T11:23:28;13.40;99.90
16305;DHT22;8261;47.678;-122.174;2023-07-13T11:26:00;13.40;99.90
16305;DHT22;8261;47.678;-122.174;2023-07-13T11:28:32;13.40;99.90
16305;DHT22;8261;47.678;-122.174;2023-07-13T11:31:13;13.40;99.90
16305;DHT22;8261;47.678;-122.174;2023-07-13T11:33:55;13.40;99.90
16305;DHT22;8261;47.678;-122.174;2023-07-13T11:36:35;13.50;99.90
16305;DHT22;8261;47.678;-122.174;2023-07-13T11:39:18;13.40;99.90
16305;DHT22;8261;47.678;-122.174;2023-07-13T11:41:53;13.30;99.90
16305;DHT22;8261;47.678;-122.174;2023-07-13T11:44:27;13.30;99.90
16305;DHT22;8261;47.678;-122.174;2023-07-13T11:47:09;13.30;99.90
16305;DHT22;8261;47.678;-122.174;2023-07-13T11:49:44;13.30;99.90
16305;DHT22;8261;47.678;-122.174;2023-07-13T11:52:19;13.30;99.90
16305;DHT22;8261;47.678;-122.174;2023-07-13T11:54:52;13.20;99.90
16305;DHT22;8261;47.678;-122.174;2023-07-13T11:57:27;13.20;99.90
16305;DHT22;8261;47.678;-122.174;2023-07-13T12:00:02;13.10;99.90
16305;DHT22;8261;47.678;-122.174;2023-07-13T12:02:37;13.10;99.90
16305;DHT22;8261;47.678;-122.174;2023-07-13T12:05:11;13.10;99.90
16305;DHT22;8261;47.678;-122.174;2023-07-13T12:07:44;13.10;99.90
16305;DHT22;8261;47.678;-122.174;2023-07-13T12:10:19;13.10;99.90
16305;DHT22;8261;47.678;-122.174;2023-07-13T12:12:53;13.10;99.90
16305;DHT22;8261;47.678;-122.174;2023-07-13T12:15:38;13.00;99.90
16305;DHT22;8261;47.678;-122.174;2023-07-13T12:18:15;13.00;99.90
16305;DHT22;8261;47.678;-122.174;2023-07-13T12:20:47;12.90;99.90
16305;DHT22;8261;47.678;-122.174;2023-07-13T12:23:25;12.90;99.90
16305;DHT22;8261;47.678;-122.174;2023-07-13T12:25:58;12.90;99.90
16305;DHT22;8261;47.678;-122.174;2023-07-13T12:28:33;12.90;99.90
16305;DHT22;8261;47.678;-122.174;2023-07-13T12:31:06;12.90;99.90
16305;DHT22;8261;47.678;-122.174;2023-07-13T12:33:40;12.90;99.90
16305;DHT22;8261;47.678;-122.174;2023-07-13T12:36:12;12.80;99.90
16305;DHT22;8261;47.678;-122.174;2023-07-13T12:38:46;12.80;99.90
16305;DHT22;8261;47.678;-122.174;2023-07-13T12:41:17;12.80;99.90
16305;DHT22;8261;47.678;-122.174;2023-07-13T12:43:49;12.80;99.90
16305;DHT22;8261;47.678;-122.174;2023-07-13T12:46:23;12.80;99.90
16305;DHT22;8261;47.678;-122.174;2023-07-13T12:48:58;12.80;99.90
16305;DHT22;8261;47.678;-122.174;2023-07-13T12:51:50;12.80;99.90
16305;DHT22;8261;47.678;-122.174;2023-07-13T12:54:23;12.80;99.90
16305;DHT22;8261;47.678;-122.174;2023-07-13T12:56:54;12.80;99.90
16305;DHT22;8261;47.678;-122.174;2023-07-13T12:59:31;12.80;99.90
16305;DHT22;8261;47.678;-122.174;2023-07-13T13:02:28;12.80;99.90
16305;DHT22;8261;47.678;-122.174;2023-07-13T13:05:00;12.90;99.90
16305;DHT22;8261;47.678;-122.174;2023-07-13T13:07:32;12.90;99.90
16305;DHT22;8261;47.678;-122.174;2023-07-13T13:10:12;12.80;99.90
16305;DHT22;8261;47.678;-122.174;2023-07-13T13:12:43;12.80;99.90
16305;DHT22;8261;47.678;-122.174;2023-07-13T13:15:14;12.90;99.90
16305;DHT22;8261;47.678;-122.174;2023-07-13T13:17:45;12.90;99.90
16305;DHT22;8261;47.678;-122.174;2023-07-13T13:20:18;12.90;99.90
16305;DHT22;8261;47.678;-122.174;2023-07-13T13:22:49;12.90;99.90
16305;DHT22;8261;47.678;-122.174;2023-07-13T13:25:22;12.90;99.90
16305;DHT22;8261;47.678;-122.174;2023-07-13T13:27:53;13.00;99.90
16305;DHT22;8261;47.678;-122.174;2023-07-13T13:30:25;13.10;99.90
16305;DHT22;8261;47.678;-122.174;2023-07-13T13:32:57;13.00;99.90
16305;DHT22;8261;47.678;-122.174;2023-07-13T13:35:28;13.10;99.90
16305;DHT22;8261;47.678;-122.174;2023-07-13T13:37:59;13.20;99.90
16305;DHT22;8261;47.678;-122.174;2023-07-13T13:40:33;13.20;99.90
16305;DHT22;8261;47.678;-122.174;2023-07-13T13:43:14;13.30;99.90
16305;DHT22;8261;47.678;-122.174;2023-07-13T13:45:46;13.30;99.90
16305;DHT22;8261;47.678;-122.174;2023-07-13T13:48:19;13.30;99.90
16305;DHT22;8261;47.678;-122.174;2023-07-13T13:50:56;13.40;99.90
16305;DHT22;8261;47.678;-122.174;2023-07-13T13:53:27;13.40;99.90
16305;DHT22;8261;47.678;-122.174;2023-07-13T13:56:00;13.50;99.90
16305;DHT22;8261;47.678;-122.174;2023-07-13T13:58:33;13.50;99.90
16305;DHT22;8261;47.678;-122.174;2023-07-13T14:01:04;13.50;99.90
16305;DHT22;8261;47.678;-122.174;2023-07-13T14:03:37;13.60;99.90
16305;DHT22;8261;47.678;-122.174;2023-07-13T14:06:12;13.60;99.90
16305;DHT22;8261;47.678;-122.174;2023-07-13T14:08:45;13.70;99.90
16305;DHT22;8261;47.678;-122.174;2023-07-13T14:11:20;13.80;99.90
16305;DHT22;8261;47.678;-122.174;2023-07-13T14:13:56;13.80;99.90
16305;DHT22;8261;47.678;-122.174;2023-07-13T14:16:33;13.90;99.90
16305;DHT22;8261;47.678;-122.174;2023-07-13T14:19:05;13.90;99.90
16305;DHT22;8261;47.678;-122.174;2023-07-13T14:21:36;14.10;99.90
16305;DHT22;8261;47.678;-122.174;2023-07-13T14:24:07;14.00;99.90
16305;DHT22;8261;47.678;-122.174;2023-07-13T14:26:41;14.10;99.90
16305;DHT22;8261;47.678;-122.174;2023-07-13T14:29:15;14.20;99.90
16305;DHT22;8261;47.678;-122.174;2023-07-13T14:31:51;14.30;99.90
16305;DHT22;8261;47.678;-122.174;2023-07-13T14:34:22;14.30;99.90
16305;DHT22;8261;47.678;-122.174;2023-07-13T14:36:53;14.30;99.90
16305;DHT22;8261;47.678;-122.174;2023-07-13T14:39:25;14.40;99.90
16305;DHT22;8261;47.678;-122.174;2023-07-13T14:41:58;14.50;99.90
16305;DHT22;8261;47.678;-122.174;2023-07-13T14:44:31;14.50;99.90
16305;DHT22;8261;47.678;-122.174;2023-07-13T14:49:36;14.70;99.90
16305;DHT22;8261;47.678;-122.174;2023-07-13T14:52:12;15.00;99.90
16305;DHT22;8261;47.678;-122.174;2023-07-13T14:54:43;15.60;99.90
16305;DHT22;8261;47.678;-122.174;2023-07-13T14:57:17;16.10;99.90
16305;DHT22;8261;47.678;-122.174;2023-07-13T14:59:48;16.90;99.90
16305;DHT22;8261;47.678;-122.174;2023-07-13T15:02:26;17.60;99.90
16305;DHT22;8261;47.678;-122.174;2023-07-13T15:04:59;18.10;99.90
16305;DHT22;8261;47.678;-122.174;2023-07-13T15:07:30;18.60;99.90
16305;DHT22;8261;47.678;-122.174;2023-07-13T15:10:04;18.40;99.90
16305;DHT22;8261;47.678;-122.174;2023-07-13T15:12:38;18.90;99.90
16305;DHT22;8261;47.678;-122.174;2023-07-13T15:15:09;19.40;99.90
16305;DHT22;8261;47.678;-122.174;2023-07-13T15:17:41;19.50;99.90
16305;DHT22;8261;47.678;-122.174;2023-07-13T15:20:19;19.70;99.90
16305;DHT22;8261;47.678;-122.174;2023-07-13T15:22:52;19.80;99.90
16305;DHT22;8261;47.678;-122.174;2023-07-13T15:25:24;19.60;99.90
16305;DHT22;8261;47.678;-122.174;2023-07-13T15:27:59;19.90;99.90
16305;DHT22;8261;47.678;-122.174;2023-07-13T15:30:31;19.90;99.90
16305;DHT22;8261;47.678;-122.174;2023-07-13T15:33:11;19.50;99.90
16305;DHT22;8261;47.678;-122.174;2023-07-13T15:35:42;19.40;99.90
16305;DHT22;8261;47.678;-122.174;2023-07-13T15:38:16;19.10;99.90
16305;DHT22;8261;47.678;-122.174;2023-07-13T15:40:48;18.70;99.90
16305;DHT22;8261;47.678;-122.174;2023-07-13T15:43:21;18.40;99.90
16305;DHT22;8261;47.678;-122.174;2023-07-13T15:45:53;18.30;99.90
16305;DHT22;8261;47.678;-122.174;2023-07-13T15:48:26;18.30;99.90